Saint Joseph, Missouri
Current Conditions -  °F | °C
As of 11:53 AM on Thursday 30 Oct 2014 (Local Time) from KSTJ Reporting Station
Clear Clear  
Wind Chill: 62°   Ceiling: Unl
Heat Index: 62°   Visibility: 10mi
Dew Point: 39°   Wind: 15mph
Humidity: 43%   Direction: 320°NW
Pressure: 30.03"   Gusts: NA
Location:  39.76°N, 94.82°W
Report Text: KSTJ 301653Z 32013KT 10SM CLR 17/04 A3003 RMK AO2 SLP168 T01670039
Loading
Personal Weather Stations






























Interactive Weather Map
Tropical Storm Tracking
New forecast layout! Learn more

10-Day Weather Forecast

Advertisements
Track Severe Weather on mobile